createdAt,value
2019-05-22T00:01:14.027Z,98.80
2019-05-22T00:03:45.211Z,98.80
2019-05-22T00:06:15.447Z,98.60
2019-05-22T00:08:45.418Z,98.70
2019-05-22T00:11:16.555Z,98.70
2019-05-22T00:13:48.018Z,98.70
2019-05-22T00:16:17.992Z,98.80
2019-05-22T00:18:47.313Z,98.80
2019-05-22T00:21:18.607Z,98.60
2019-05-22T00:23:47.937Z,98.50
2019-05-22T00:26:19.349Z,98.40
2019-05-22T00:28:49.646Z,98.30
2019-05-22T00:31:20.820Z,98.80
2019-05-22T00:33:50.376Z,98.50
2019-05-22T00:36:20.826Z,98.40
2019-05-22T00:38:51.481Z,98.40
2019-05-22T00:41:22.511Z,98.70
2019-05-22T00:43:53.002Z,98.60
2019-05-22T00:46:24.585Z,98.20
2019-05-22T00:48:54.494Z,98.50
2019-05-22T00:51:34.538Z,98.40
2019-05-22T00:54:09.753Z,98.50
2019-05-22T00:56:53.132Z,98.60
2019-05-22T00:59:27.171Z,98.20
2019-05-22T01:02:04.594Z,98.60
2019-05-22T01:04:43.680Z,98.70
2019-05-22T01:07:20.782Z,98.50
2019-05-22T01:09:52.784Z,98.30
2019-05-22T01:12:29.722Z,98.20
2019-05-22T01:15:05.021Z,98.40
2019-05-22T01:17:36.828Z,98.20
2019-05-22T01:20:11.849Z,98.30
2019-05-22T01:22:42.462Z,98.10
2019-05-22T01:25:16.038Z,98.10
2019-05-22T01:27:47.183Z,98.30
2019-05-22T01:30:35.336Z,98.20
2019-05-22T01:33:13.154Z,98.30
2019-05-22T01:35:44.582Z,98.40
2019-05-22T01:38:13.936Z,97.40
2019-05-22T01:40:51.148Z,97.70
2019-05-22T01:43:23.672Z,98.20
2019-05-22T01:45:52.586Z,98.90
2019-05-22T01:48:26.142Z,98.40
2019-05-22T01:50:58.822Z,98.90
2019-05-22T01:53:33.749Z,98.20
2019-05-22T01:56:07.167Z,98.40
2019-05-22T01:58:39.128Z,97.90
2019-05-22T02:01:12.876Z,97.40
2019-05-22T02:03:42.999Z,97.70
2019-05-22T02:06:12.397Z,97.80
2019-05-22T02:08:46.046Z,98.00
2019-05-22T02:11:19.546Z,98.20
2019-05-22T02:13:54.807Z,98.10
2019-05-22T02:16:26.514Z,98.00
2019-05-22T02:18:56.624Z,98.00
2019-05-22T02:21:26.963Z,98.30
2019-05-22T02:23:56.470Z,98.10
2019-05-22T02:26:25.866Z,98.10
2019-05-22T02:28:55.364Z,98.10
2019-05-22T02:31:26.618Z,98.00
2019-05-22T02:34:03.752Z,98.20
2019-05-22T02:36:37.643Z,97.50
2019-05-22T02:39:26.571Z,98.00
2019-05-22T02:42:02.382Z,98.40
2019-05-22T02:44:33.415Z,97.90
2019-05-22T02:47:17.781Z,97.70
2019-05-22T02:49:36.492Z,97.60
2019-05-22T02:52:07.978Z,97.80
2019-05-22T02:54:38.629Z,97.90
2019-05-22T02:57:10.328Z,97.90
2019-05-22T02:59:42.281Z,97.80
2019-05-22T03:02:14.121Z,97.80
2019-05-22T03:05:03.646Z,98.00
2019-05-22T03:07:33.214Z,97.90
2019-05-22T03:10:05.039Z,97.90
2019-05-22T03:12:36.472Z,97.80
2019-05-22T03:15:13.115Z,98.30
2019-05-22T03:17:45.127Z,97.60
2019-05-22T03:20:18.982Z,97.70
2019-05-22T03:23:09.832Z,97.90
2019-05-22T03:25:40.595Z,97.70
2019-05-22T03:28:11.094Z,97.70
2019-05-22T03:30:44.103Z,97.90
2019-05-22T03:33:14.711Z,97.70
2019-05-22T03:35:49.067Z,97.70
2019-05-22T03:38:20.514Z,97.90
2019-05-22T03:40:52.402Z,98.00
2019-05-22T03:43:25.102Z,97.60
2019-05-22T03:45:56.324Z,97.10
2019-05-22T03:48:30.359Z,97.20
2019-05-22T03:51:09.458Z,97.70
2019-05-22T03:53:39.675Z,97.50
2019-05-22T03:56:09.339Z,98.00
2019-05-22T03:58:38.620Z,97.80
2019-05-22T04:01:08.141Z,97.90
2019-05-22T04:03:38.726Z,97.40
2019-05-22T04:06:08.686Z,97.10
2019-05-22T04:08:39.585Z,97.70
2019-05-22T04:11:10.396Z,97.10
2019-05-22T04:13:40.550Z,97.20
2019-05-22T04:16:14.373Z,97.60
2019-05-22T04:18:44.454Z,97.50
2019-05-22T04:21:14.110Z,97.10
2019-05-22T04:23:43.779Z,97.50
2019-05-22T04:26:13.872Z,97.10
2019-05-22T04:28:55.032Z,97.00
2019-05-22T04:31:46.704Z,97.10
2019-05-22T04:34:16.192Z,97.20
2019-05-22T04:36:46.847Z,97.40
2019-05-22T04:39:22.232Z,97.80
2019-05-22T04:41:52.795Z,97.50
2019-05-22T04:44:22.893Z,97.80
2019-05-22T04:46:52.742Z,97.00
2019-05-22T04:49:22.528Z,97.10
2019-05-22T04:51:52.124Z,96.20
2019-05-22T04:54:22.435Z,97.60
2019-05-22T04:56:52.259Z,96.10
2019-05-22T04:59:22.243Z,97.40
2019-05-22T05:01:51.723Z,97.10
2019-05-22T05:04:21.111Z,96.20
2019-05-22T05:06:51.084Z,97.10
2019-05-22T05:09:21.319Z,96.90
2019-05-22T05:11:50.953Z,96.80
2019-05-22T05:14:20.359Z,96.90
2019-05-22T05:16:50.723Z,96.80
2019-05-22T05:19:20.630Z,96.70
2019-05-22T05:21:50.039Z,96.60
2019-05-22T05:24:20.218Z,96.60
2019-05-22T05:26:50.466Z,97.30
2019-05-22T05:29:30.488Z,96.90
2019-05-22T05:32:00.389Z,96.60
2019-05-22T05:34:40.702Z,96.60
2019-05-22T05:37:13.495Z,96.80
2019-05-22T05:39:53.024Z,96.90
2019-05-22T05:42:22.808Z,97.10
2019-05-22T05:44:52.165Z,96.50
2019-05-22T05:47:21.582Z,96.40
2019-05-22T05:49:51.796Z,96.40
2019-05-22T05:52:21.634Z,96.50
2019-05-22T05:54:51.658Z,96.30
2019-05-22T05:57:41.002Z,96.50
2019-05-22T06:00:16.834Z,96.20
2019-05-22T06:02:56.002Z,96.30
2019-05-22T06:05:17.651Z,96.20
2019-05-22T06:07:47.146Z,96.10
2019-05-22T06:10:30.393Z,96.30
2019-05-22T06:13:00.674Z,96.40
2019-05-22T06:15:47.824Z,96.00
2019-05-22T06:18:32.634Z,96.20
2019-05-22T06:21:04.455Z,95.90
2019-05-22T06:23:42.438Z,95.70
2019-05-22T06:26:18.693Z,95.80
2019-05-22T06:28:49.132Z,95.90
2019-05-22T06:31:32.123Z,96.10
2019-05-22T06:34:01.467Z,96.00
2019-05-22T06:36:31.364Z,95.70
2019-05-22T06:39:03.538Z,95.40
2019-05-22T06:41:36.035Z,95.30
2019-05-22T06:44:30.546Z,95.10
2019-05-22T06:47:01.055Z,95.60
2019-05-22T06:49:37.015Z,95.40
2019-05-22T06:52:10.028Z,95.20
2019-05-22T06:54:39.578Z,95.40
2019-05-22T06:57:11.651Z,95.20
2019-05-22T06:59:41.869Z,94.80
2019-05-22T07:02:14.035Z,95.10
2019-05-22T07:04:43.635Z,95.10
2019-05-22T07:07:14.681Z,94.80
2019-05-22T07:09:45.745Z,94.90
2019-05-22T07:12:16.848Z,94.80
2019-05-22T07:15:10.860Z,94.30
2019-05-22T07:17:40.264Z,94.20
2019-05-22T07:20:11.446Z,94.40
2019-05-22T07:22:40.853Z,94.40
2019-05-22T07:25:12.019Z,94.30
2019-05-22T07:27:42.333Z,94.10
2019-05-22T07:30:11.895Z,94.30
2019-05-22T07:32:41.453Z,94.50
2019-05-22T07:35:11.583Z,94.30
2019-05-22T07:37:46.026Z,93.90
2019-05-22T07:40:18.701Z,94.30
2019-05-22T07:42:50.846Z,93.90
2019-05-22T07:45:22.912Z,93.90
2019-05-22T07:47:53.958Z,93.30
2019-05-22T07:50:24.480Z,93.50
2019-05-22T07:52:54.064Z,93.40
2019-05-22T07:55:25.583Z,93.80
2019-05-22T07:58:05.711Z,93.50
2019-05-22T08:00:35.538Z,93.60
2019-05-22T08:03:05.954Z,92.90
2019-05-22T08:05:38.942Z,92.60
2019-05-22T08:08:08.799Z,93.50
2019-05-22T08:10:38.420Z,93.00
2019-05-22T08:13:08.556Z,92.80
2019-05-22T08:15:38.062Z,92.70
2019-05-22T08:18:07.931Z,92.10
2019-05-22T08:20:37.874Z,92.10
2019-05-22T08:23:07.758Z,91.80
2019-05-22T08:25:37.500Z,91.30
2019-05-22T08:28:08.290Z,91.10
2019-05-22T08:30:37.678Z,90.40
2019-05-22T08:33:10.673Z,90.50
2019-05-22T08:35:40.297Z,91.30
2019-05-22T08:38:12.001Z,90.00
2019-05-22T08:40:41.878Z,89.50
2019-05-22T08:43:12.711Z,88.60
2019-05-22T08:45:43.015Z,88.80
2019-05-22T08:48:13.518Z,88.50
2019-05-22T08:50:45.135Z,89.20
2019-05-22T08:53:16.116Z,88.90
2019-05-22T08:55:46.554Z,88.10
2019-05-22T08:58:19.076Z,89.10
2019-05-22T09:00:49.079Z,86.10
2019-05-22T09:03:18.490Z,86.30
2019-05-22T09:05:47.812Z,87.10
2019-05-22T09:08:17.400Z,86.60
2019-05-22T09:10:47.088Z,88.10
2019-05-22T09:13:16.627Z,86.80
2019-05-22T09:15:46.023Z,86.10
2019-05-22T09:18:15.533Z,85.80
2019-05-22T09:20:49.242Z,86.90
2019-05-22T09:23:17.428Z,85.80
2019-05-22T09:25:47.168Z,85.60
2019-05-22T09:28:16.666Z,85.70
2019-05-22T09:30:46.348Z,85.60
2019-05-22T09:33:16.214Z,85.60
2019-05-22T09:35:45.909Z,85.50
2019-05-22T09:38:15.557Z,85.90
2019-05-22T09:40:46.232Z,85.40
2019-05-22T09:43:15.799Z,84.70
2019-05-22T09:45:45.113Z,84.10
2019-05-22T09:48:14.974Z,83.30
2019-05-22T09:50:44.362Z,83.90
2019-05-22T09:53:13.814Z,81.70
2019-05-22T09:55:47.175Z,84.00
2019-05-22T09:58:14.281Z,83.30
2019-05-22T10:00:43.904Z,82.70
2019-05-22T10:03:13.329Z,83.30
2019-05-22T10:05:42.961Z,84.40
2019-05-22T10:08:12.685Z,82.20
2019-05-22T10:10:42.617Z,82.10
2019-05-22T10:13:12.105Z,82.40
2019-05-22T10:15:42.222Z,82.60
2019-05-22T10:18:11.941Z,81.90
2019-05-22T10:20:41.799Z,80.60
2019-05-22T10:23:16.177Z,81.50
2019-05-22T10:25:42.848Z,81.80
2019-05-22T10:28:12.969Z,82.10
2019-05-22T10:30:42.434Z,81.00
2019-05-22T10:33:12.180Z,81.20
2019-05-22T10:35:41.955Z,80.70
2019-05-22T10:38:11.542Z,81.00
2019-05-22T10:40:41.017Z,81.60
2019-05-22T10:43:10.434Z,80.60
2019-05-22T10:45:40.103Z,80.30
2019-05-22T10:48:09.600Z,79.10
2019-05-22T10:50:39.038Z,79.80
2019-05-22T10:53:09.018Z,79.30
2019-05-22T10:55:38.891Z,78.10
2019-05-22T10:58:08.961Z,78.10
2019-05-22T11:00:38.362Z,78.10
2019-05-22T11:03:08.453Z,78.80
2019-05-22T11:05:38.794Z,79.30
2019-05-22T11:08:08.446Z,79.80
2019-05-22T11:10:37.975Z,79.90
2019-05-22T11:13:07.524Z,79.50
2019-05-22T11:15:37.015Z,79.80
2019-05-22T11:18:06.495Z,79.20
2019-05-22T11:20:36.022Z,79.40
2019-05-22T11:23:05.768Z,77.40
2019-05-22T11:25:35.771Z,77.40
2019-05-22T11:28:05.224Z,75.80
2019-05-22T11:30:35.948Z,75.80
2019-05-22T11:33:06.227Z,76.20
2019-05-22T11:35:36.240Z,74.70
2019-05-22T11:38:05.639Z,73.70
2019-05-22T11:40:35.040Z,74.10
2019-05-22T11:43:05.815Z,73.70
2019-05-22T11:45:35.530Z,71.50
2019-05-22T11:48:05.544Z,72.70
2019-05-22T11:50:36.507Z,71.40
2019-05-22T11:53:05.991Z,68.10
2019-05-22T11:55:45.076Z,70.30
2019-05-22T11:58:07.658Z,69.40
2019-05-22T12:00:37.335Z,72.00
2019-05-22T12:03:07.289Z,73.10
2019-05-22T12:05:36.890Z,73.40
2019-05-22T12:08:07.251Z,74.30
2019-05-22T12:10:38.571Z,71.80
2019-05-22T12:13:09.730Z,72.40
2019-05-22T12:15:39.413Z,71.40
2019-05-22T12:18:10.818Z,72.10
2019-05-22T12:20:40.312Z,73.70
2019-05-22T12:23:09.898Z,74.70
2019-05-22T12:25:39.640Z,72.70
2019-05-22T12:28:09.515Z,72.90
2019-05-22T12:30:39.164Z,68.70
2019-05-22T12:33:13.714Z,68.10
2019-05-22T12:35:42.348Z,64.40
2019-05-22T12:38:13.798Z,64.70
2019-05-22T12:40:45.205Z,65.80
2019-05-22T12:43:14.776Z,64.20
2019-05-22T12:45:44.621Z,66.70
2019-05-22T12:48:14.871Z,66.70
2019-05-22T12:50:44.280Z,70.00
2019-05-22T12:53:15.248Z,70.20
2019-05-22T12:55:44.894Z,71.10
2019-05-22T12:58:14.556Z,67.10
2019-05-22T13:00:44.608Z,61.00
2019-05-22T13:03:16.036Z,62.20
2019-05-22T13:05:46.768Z,64.60
2019-05-22T13:08:16.897Z,66.70
2019-05-22T13:10:47.054Z,66.40
2019-05-22T13:13:16.608Z,65.10
2019-05-22T13:15:46.887Z,63.60
2019-05-22T13:18:20.391Z,63.80
2019-05-22T13:20:51.571Z,64.80
2019-05-22T13:23:24.912Z,61.50
2019-05-22T13:25:55.148Z,59.80
2019-05-22T13:28:28.447Z,59.60
2019-05-22T13:30:58.803Z,56.80
2019-05-22T13:33:29.308Z,57.30
2019-05-22T13:35:59.697Z,57.40
2019-05-22T13:38:29.314Z,57.20
2019-05-22T13:40:58.970Z,55.30
2019-05-22T13:43:30.096Z,54.00
2019-05-22T13:46:00.023Z,55.60
2019-05-22T13:48:29.754Z,57.60
2019-05-22T13:51:00.104Z,56.70
2019-05-22T13:53:30.925Z,58.60
2019-05-22T13:56:01.071Z,57.90
2019-05-22T13:58:31.697Z,55.80
2019-05-22T14:01:01.268Z,55.20
2019-05-22T14:03:30.717Z,57.30
2019-05-22T14:06:00.518Z,57.10
2019-05-22T14:08:29.882Z,56.60
2019-05-22T14:10:59.927Z,53.40
2019-05-22T14:13:29.779Z,55.70
2019-05-22T14:15:59.343Z,54.60
2019-05-22T14:18:29.128Z,55.30
2019-05-22T14:20:58.583Z,55.40
2019-05-22T14:23:27.967Z,51.20
2019-05-22T14:25:57.546Z,52.70
2019-05-22T14:28:28.670Z,52.40
2019-05-22T14:30:58.658Z,51.80
2019-05-22T14:33:28.538Z,52.20
2019-05-22T14:35:59.767Z,53.80
2019-05-22T14:38:29.260Z,52.90
2019-05-22T14:40:58.669Z,55.40
2019-05-22T14:43:29.209Z,59.10
2019-05-22T14:45:59.312Z,59.20
2019-05-22T14:48:28.644Z,58.10
2019-05-22T14:50:58.917Z,58.20
2019-05-22T14:53:29.076Z,58.10
2019-05-22T14:56:00.294Z,56.90
2019-05-22T14:58:30.540Z,57.20
2019-05-22T15:01:00.008Z,56.80
2019-05-22T15:03:29.580Z,56.80
2019-05-22T15:05:59.393Z,55.00
2019-05-22T15:08:28.853Z,53.90
2019-05-22T15:10:58.699Z,53.70
2019-05-22T15:13:28.216Z,54.10
2019-05-22T15:15:57.786Z,54.00
2019-05-22T15:18:27.194Z,55.00
2019-05-22T15:21:04.064Z,55.70
2019-05-22T15:23:33.994Z,53.40
2019-05-22T15:26:04.017Z,52.10
2019-05-22T15:28:33.963Z,50.30
2019-05-22T15:31:04.111Z,51.00
2019-05-22T15:33:35.043Z,51.00
2019-05-22T15:36:08.133Z,51.70
2019-05-22T15:38:40.961Z,50.60
2019-05-22T15:41:11.582Z,50.30
2019-05-22T15:43:43.201Z,50.70
2019-05-22T15:46:14.654Z,50.70
2019-05-22T15:48:46.892Z,50.30
2019-05-22T15:51:18.281Z,49.30
2019-05-22T15:53:48.156Z,50.90
2019-05-22T15:56:18.676Z,52.50
2019-05-22T15:58:51.900Z,51.80
2019-05-22T16:01:24.691Z,52.40
2019-05-22T16:03:58.062Z,53.00
2019-05-22T16:06:29.371Z,52.40
2019-05-22T16:08:59.662Z,51.00
2019-05-22T16:11:31.408Z,50.20
2019-05-22T16:14:01.906Z,50.30
2019-05-22T16:16:32.313Z,51.10
2019-05-22T16:19:05.056Z,50.70
2019-05-22T16:21:36.337Z,50.40
2019-05-22T16:24:07.442Z,51.70
2019-05-22T16:26:36.824Z,51.50
2019-05-22T16:29:07.169Z,52.40
2019-05-22T16:31:39.700Z,53.30
2019-05-22T16:34:09.184Z,52.40
2019-05-22T16:36:38.936Z,52.40
2019-05-22T16:39:11.278Z,52.10
2019-05-22T16:41:43.148Z,48.70
2019-05-22T16:44:12.944Z,49.20
2019-05-22T16:46:42.793Z,51.90
2019-05-22T16:49:13.746Z,53.00
2019-05-22T16:51:45.620Z,53.60
2019-05-22T16:54:20.308Z,53.20
2019-05-22T16:56:48.931Z,52.40
2019-05-22T16:59:19.811Z,52.50
2019-05-22T17:02:00.542Z,51.90
2019-05-22T17:04:21.140Z,50.10
2019-05-22T17:06:50.526Z,51.80
2019-05-22T17:09:21.415Z,50.70
2019-05-22T17:11:51.914Z,50.10
2019-05-22T17:14:23.801Z,49.20
2019-05-22T17:16:53.620Z,49.10
2019-05-22T17:19:27.593Z,49.80
2019-05-22T17:21:55.649Z,50.30
2019-05-22T17:24:26.048Z,49.80
2019-05-22T17:26:56.317Z,47.90
2019-05-22T17:29:26.401Z,48.90
2019-05-22T17:31:57.092Z,50.20
2019-05-22T17:34:34.195Z,49.80
2019-05-22T17:37:08.639Z,50.10
2019-05-22T17:39:42.295Z,51.60
2019-05-22T17:42:15.178Z,51.30
2019-05-22T17:44:47.110Z,50.50
2019-05-22T17:47:18.016Z,51.50
2019-05-22T17:49:47.431Z,51.10
2019-05-22T17:52:18.862Z,51.90
2019-05-22T17:54:51.103Z,51.80
2019-05-22T17:57:22.375Z,52.00
2019-05-22T17:59:52.624Z,53.00
2019-05-22T18:02:23.936Z,53.20
2019-05-22T18:04:54.361Z,53.00
2019-05-22T18:07:24.824Z,53.90
2019-05-22T18:09:55.120Z,54.70
2019-05-22T18:12:24.575Z,54.90
2019-05-22T18:14:54.083Z,56.00
2019-05-22T18:17:24.728Z,56.80
2019-05-22T18:19:54.125Z,56.50
2019-05-22T18:22:23.525Z,57.70
2019-05-22T18:24:52.941Z,57.10
2019-05-22T18:27:25.246Z,57.00
2019-05-22T18:29:54.298Z,57.00
2019-05-22T18:32:23.898Z,57.40
2019-05-22T18:34:53.247Z,56.30
2019-05-22T18:37:22.630Z,56.40
2019-05-22T18:39:55.607Z,57.10
2019-05-22T18:42:24.976Z,58.00
2019-05-22T18:44:54.316Z,58.60
2019-05-22T18:47:24.103Z,59.00
2019-05-22T18:49:53.866Z,59.10
2019-05-22T18:52:38.216Z,60.00
2019-05-22T18:54:54.331Z,61.20
2019-05-22T18:57:24.123Z,62.30
2019-05-22T19:00:00.341Z,61.30
2019-05-22T19:02:24.944Z,60.80
2019-05-22T19:04:57.724Z,61.50
2019-05-22T19:07:27.005Z,62.90
2019-05-22T19:09:56.479Z,63.40
2019-05-22T19:12:26.506Z,64.30
2019-05-22T19:14:56.093Z,65.50
2019-05-22T19:17:25.561Z,66.10
2019-05-22T19:19:55.149Z,66.50
2019-05-22T19:22:24.780Z,66.70
2019-05-22T19:24:54.132Z,67.10
2019-05-22T19:27:23.632Z,67.40
2019-05-22T19:29:53.093Z,67.90
2019-05-22T19:32:22.422Z,69.90
2019-05-22T19:34:51.875Z,69.60
2019-05-22T19:37:21.268Z,70.90
2019-05-22T19:39:50.822Z,71.70
2019-05-22T19:42:20.294Z,72.80
2019-05-22T19:44:51.724Z,73.80
2019-05-22T19:47:21.844Z,74.50
2019-05-22T19:49:51.920Z,73.10
2019-05-22T19:52:24.230Z,71.50
2019-05-22T19:54:53.272Z,73.20
2019-05-22T19:57:22.911Z,73.30
2019-05-22T19:59:52.317Z,74.50
2019-05-22T20:02:22.228Z,74.60
2019-05-22T20:05:13.104Z,75.80
2019-05-22T20:07:45.800Z,76.10
2019-05-22T20:10:15.741Z,77.00
2019-05-22T20:12:46.786Z,76.80
2019-05-22T20:15:17.189Z,77.90
2019-05-22T20:17:47.284Z,78.40
2019-05-22T20:20:19.229Z,77.90
2019-05-22T20:22:49.737Z,77.70
2019-05-22T20:25:20.562Z,77.70
2019-05-22T20:27:49.978Z,78.30
2019-05-22T20:30:21.958Z,78.20
2019-05-22T20:32:51.448Z,78.90
2019-05-22T20:35:25.498Z,78.50
2019-05-22T20:38:00.342Z,79.60
2019-05-22T20:40:33.685Z,80.10
2019-05-22T20:43:14.902Z,81.90
2019-05-22T20:45:46.828Z,82.10
2019-05-22T20:51:35.268Z,82.60
2019-05-22T20:54:04.944Z,82.80
2019-05-22T20:56:35.415Z,83.50
2019-05-22T20:59:05.189Z,83.80
2019-05-22T21:04:28.191Z,84.70
2019-05-22T21:05:07.872Z,84.30
2019-05-22T21:07:02.557Z,85.10
2019-05-22T21:09:32.499Z,85.70
2019-05-22T21:12:03.585Z,86.10
2019-05-22T21:14:33.383Z,86.70
2019-05-22T21:17:03.569Z,87.30
2019-05-22T21:19:34.903Z,87.90
2019-05-22T21:22:06.971Z,88.00
2019-05-22T21:24:36.696Z,88.90
2019-05-22T21:27:07.551Z,89.50
2019-05-22T21:29:37.679Z,90.00
2019-05-22T21:32:08.388Z,89.40
2019-05-22T21:34:38.430Z,89.80
2019-05-22T21:37:08.015Z,90.20
2019-05-22T21:39:37.911Z,90.40
2019-05-22T21:42:08.756Z,89.80
2019-05-22T21:44:38.381Z,90.00
2019-05-22T21:47:09.652Z,90.30
2019-05-22T21:49:39.990Z,90.50
2019-05-22T21:52:10.981Z,90.40
2019-05-22T21:54:40.439Z,90.40
2019-05-22T21:57:10.428Z,90.70
2019-05-22T21:59:41.587Z,91.10
2019-05-22T22:02:13.401Z,91.10
2019-05-22T22:04:43.441Z,90.80
2019-05-22T22:07:13.610Z,91.30
2019-05-22T22:09:43.074Z,91.70
2019-05-22T22:12:14.925Z,91.50
2019-05-22T22:14:44.489Z,91.50
2019-05-22T22:17:14.698Z,91.40
2019-05-22T22:19:44.337Z,91.20
2019-05-22T22:22:19.176Z,91.50
2019-05-22T22:24:52.549Z,91.70
2019-05-22T22:27:25.233Z,91.90
2019-05-22T22:29:55.719Z,92.00
2019-05-22T22:32:26.769Z,92.00
2019-05-22T22:34:56.277Z,92.10
2019-05-22T22:37:25.899Z,92.30
2019-05-22T22:39:56.745Z,92.10
2019-05-22T22:42:28.473Z,91.90
2019-05-22T22:44:59.594Z,91.50
2019-05-22T22:47:30.882Z,91.70
2019-05-22T22:50:00.851Z,92.30
2019-05-22T22:52:31.426Z,92.40
2019-05-22T22:55:01.829Z,92.60
2019-05-22T22:57:31.779Z,92.60
2019-05-22T23:00:02.107Z,92.50
2019-05-22T23:02:33.047Z,92.40
2019-05-22T23:05:04.797Z,92.80
2019-05-22T23:07:36.050Z,92.80
2019-05-22T23:10:09.634Z,92.40
2019-05-22T23:12:40.689Z,92.60
2019-05-22T23:15:12.178Z,92.80
2019-05-22T23:17:42.894Z,93.10
2019-05-22T23:20:10.802Z,93.10
2019-05-22T23:22:40.180Z,93.30
2019-05-22T23:25:10.353Z,93.40
2019-05-22T23:27:39.809Z,93.50
2019-05-22T23:30:11.612Z,93.60
2019-05-22T23:32:44.234Z,93.50
2019-05-22T23:35:13.802Z,93.10
2019-05-22T23:37:44.359Z,93.40
2019-05-22T23:40:18.759Z,93.40
2019-05-22T23:42:48.672Z,93.40
2019-05-22T23:45:21.971Z,93.10
2019-05-22T23:48:02.377Z,93.10
2019-05-22T23:50:35.292Z,93.50
2019-05-22T23:53:05.911Z,93.20
2019-05-22T23:55:36.450Z,93.50
2019-05-22T23:58:07.117Z,93.50
